Time;durP1;ratioP1;P1;durP2;ratioP2;P2;SDS_P1;SDS_P2;PMS_P1;PMS_P2;Temp;Humidity;BMP_temperature;BMP_pressure;BME280_temperature;BME280_humidity;BME280_pressure;Samples;Min_cycle;Max_cycle;Signal;HPM_P1;HPM_P2
2022/09/18 00:00:47;;;;;;;;;;;20.60;99.90;;;;;;5012917;28;20424;-62
2022/09/18 00:03:14;;;;;;;;;;;20.60;99.90;;;;;;5021720;28;19932;-60
2022/09/18 00:05:42;;;;;;;;;;;20.60;99.90;;;;;;5035529;28;19928;-63
2022/09/18 00:08:09;;;;;;;;;;;20.60;99.90;;;;;;5040564;28;19928;-64
2022/09/18 00:10:40;;;;;;;;;;;20.60;99.90;;;;;;5038132;28;19936;-63
2022/09/18 00:13:08;;;;;;;;;;;20.60;99.90;;;;;;5048577;28;19932;-61
2022/09/18 00:15:35;;;;;;;;;;;20.60;99.90;;;;;;5022806;28;19932;-63
2022/09/18 00:18:03;;;;;;;;;;;20.60;99.90;;;;;;5008514;28;19924;-63
2022/09/18 00:20:32;;;;;;;;;;;20.60;99.90;;;;;;5047577;28;19929;-61
2022/09/18 00:22:59;;;;;;;;;;;20.60;99.90;;;;;;5035601;28;19925;-64
2022/09/18 00:25:27;;;;;;;;;;;20.60;99.90;;;;;;5020824;28;19928;-62
2022/09/18 00:27:54;;;;;;;;;;;20.50;99.90;;;;;;5022672;28;19936;-63
2022/09/18 00:30:21;;;;;;;;;;;20.50;99.90;;;;;;5031686;28;19929;-63
2022/09/18 00:32:48;;;;;;;;;;;20.60;99.90;;;;;;5037666;28;19933;-64
2022/09/18 00:35:15;;;;;;;;;;;20.60;99.90;;;;;;5031093;28;19936;-63
2022/09/18 00:37:42;;;;;;;;;;;20.50;99.90;;;;;;5042670;28;20392;-64
2022/09/18 00:40:09;;;;;;;;;;;20.60;99.90;;;;;;5031826;28;20393;-63
2022/09/18 00:42:37;;;;;;;;;;;20.50;99.90;;;;;;5022605;28;19933;-64
2022/09/18 00:45:04;;;;;;;;;;;20.50;99.90;;;;;;5023538;28;19925;-61
2022/09/18 00:47:32;;;;;;;;;;;20.50;99.90;;;;;;5042652;28;19934;-63
2022/09/18 00:50:05;;;;;;;;;;;20.50;99.90;;;;;;5019597;28;20060;-64
2022/09/18 00:52:38;;;;;;;;;;;20.50;99.90;;;;;;5036282;28;19925;-63
2022/09/18 00:55:07;;;;;;;;;;;20.50;99.90;;;;;;5023279;28;20339;-62
2022/09/18 00:57:36;;;;;;;;;;;20.50;99.90;;;;;;5001512;28;19932;-63
2022/09/18 01:00:07;;;;;;;;;;;20.50;99.90;;;;;;5028496;28;19932;-63
2022/09/18 01:02:34;;;;;;;;;;;20.50;99.90;;;;;;5026307;28;19948;-63
2022/09/18 01:05:01;;;;;;;;;;;20.50;99.90;;;;;;5035676;28;19933;-61
2022/09/18 01:07:28;;;;;;;;;;;20.50;99.90;;;;;;5038323;28;20321;-63
2022/09/18 01:10:12;;;;;;;;;;;20.50;99.90;;;;;;5019366;28;19925;-63
2022/09/18 01:12:39;;;;;;;;;;;20.50;99.90;;;;;;5030170;28;19928;-62
2022/09/18 01:15:12;;;;;;;;;;;20.50;99.90;;;;;;5053686;28;19929;-61
2022/09/18 01:18:00;;;;;;;;;;;20.50;99.90;;;;;;5009473;28;19944;-63
2022/09/18 01:20:27;;;;;;;;;;;20.60;99.90;;;;;;5040885;28;19993;-64
2022/09/18 01:23:09;;;;;;;;;;;20.50;99.90;;;;;;5013577;28;19937;-60
2022/09/18 01:25:42;;;;;;;;;;;20.50;99.90;;;;;;5030554;28;19936;-62
2022/09/18 01:28:22;;;;;;;;;;;20.50;99.90;;;;;;5019409;28;19940;-63
2022/09/18 01:30:52;;;;;;;;;;;20.50;99.90;;;;;;5018199;28;19928;-59
2022/09/18 01:33:26;;;;;;;;;;;20.50;99.90;;;;;;5026001;28;19925;-64
2022/09/18 01:35:57;;;;;;;;;;;20.50;99.90;;;;;;5019216;28;19936;-62
2022/09/18 01:38:36;;;;;;;;;;;20.50;99.90;;;;;;5025429;28;19929;-64
2022/09/18 01:41:18;;;;;;;;;;;20.40;99.90;;;;;;5001276;28;19929;-62
2022/09/18 01:43:47;;;;;;;;;;;20.50;99.90;;;;;;5026886;28;19929;-64
2022/09/18 01:46:18;;;;;;;;;;;20.40;99.90;;;;;;5020941;28;19936;-61
2022/09/18 01:49:03;;;;;;;;;;;20.50;99.90;;;;;;5004738;28;20252;-62
2022/09/18 01:51:37;;;;;;;;;;;20.50;99.90;;;;;;5022161;28;19932;-62
2022/09/18 01:54:11;;;;;;;;;;;20.50;99.90;;;;;;5018662;28;19925;-62
2022/09/18 01:56:46;;;;;;;;;;;20.40;99.90;;;;;;5021916;28;19951;-63
2022/09/18 01:59:17;;;;;;;;;;;20.40;99.90;;;;;;5015250;28;20385;-63
2022/09/18 02:01:52;;;;;;;;;;;20.50;99.90;;;;;;5026621;28;20331;-64
2022/09/18 02:04:25;;;;;;;;;;;20.40;99.90;;;;;;5041256;28;19929;-64
2022/09/18 02:07:02;;;;;;;;;;;20.40;99.90;;;;;;5018314;28;19928;-63
2022/09/18 02:09:30;;;;;;;;;;;20.50;99.90;;;;;;5040246;28;19933;-63
2022/09/18 02:12:00;;;;;;;;;;;20.40;99.90;;;;;;5024605;28;19929;-63
2022/09/18 02:14:32;;;;;;;;;;;20.40;99.90;;;;;;4999675;28;19949;-63
2022/09/18 02:17:26;;;;;;;;;;;20.40;99.90;;;;;;5033718;28;19929;-64
2022/09/18 02:19:57;;;;;;;;;;;20.40;99.90;;;;;;5023159;28;19929;-64
2022/09/18 02:22:29;;;;;;;;;;;20.40;99.90;;;;;;5009584;28;19925;-64
2022/09/18 02:24:58;;;;;;;;;;;20.40;99.90;;;;;;5028605;28;19929;-63
2022/09/18 02:27:26;;;;;;;;;;;20.40;99.90;;;;;;5012634;28;19929;-62
2022/09/18 02:29:55;;;;;;;;;;;20.40;99.90;;;;;;5007980;28;19925;-62
2022/09/18 02:32:22;;;;;;;;;;;20.40;99.90;;;;;;5035949;28;19932;-61
2022/09/18 02:34:49;;;;;;;;;;;20.40;99.90;;;;;;5011391;28;19926;-63
2022/09/18 02:37:28;;;;;;;;;;;20.40;99.90;;;;;;5021957;28;19936;-62
2022/09/18 02:40:13;;;;;;;;;;;20.40;99.90;;;;;;5035741;28;19932;-63
2022/09/18 02:43:02;;;;;;;;;;;20.40;99.90;;;;;;5035321;28;19929;-63
2022/09/18 02:45:48;;;;;;;;;;;20.40;99.90;;;;;;5023845;28;19928;-64
2022/09/18 02:48:18;;;;;;;;;;;20.40;99.90;;;;;;5021776;28;20673;-62
2022/09/18 02:51:09;;;;;;;;;;;20.40;99.90;;;;;;5016875;28;19926;-63
2022/09/18 02:53:36;;;;;;;;;;;20.40;99.90;;;;;;5033233;28;19936;-64
2022/09/18 02:56:09;;;;;;;;;;;20.40;99.90;;;;;;5014275;28;19932;-64
2022/09/18 02:58:55;;;;;;;;;;;20.40;99.90;;;;;;5022643;28;20525;-63
2022/09/18 03:01:25;;;;;;;;;;;20.40;99.90;;;;;;5023134;28;20004;-63
2022/09/18 03:03:53;;;;;;;;;;;20.40;99.90;;;;;;5022881;28;19935;-63
2022/09/18 03:06:33;;;;;;;;;;;20.40;99.90;;;;;;5003416;28;20447;-64
2022/09/18 03:09:00;;;;;;;;;;;20.40;99.90;;;;;;5045445;28;19935;-61
2022/09/18 03:11:29;;;;;;;;;;;20.40;99.90;;;;;;5009926;28;19933;-59
2022/09/18 03:13:56;;;;;;;;;;;20.40;99.90;;;;;;5026945;28;20016;-63
2022/09/18 03:16:24;;;;;;;;;;;20.40;99.90;;;;;;5015668;28;19960;-62
2022/09/18 03:18:51;;;;;;;;;;;20.30;99.90;;;;;;5015847;28;19936;-63
2022/09/18 03:21:19;;;;;;;;;;;20.30;99.90;;;;;;5034211;28;19925;-65
2022/09/18 03:23:49;;;;;;;;;;;20.30;99.90;;;;;;5015412;28;19932;-65
2022/09/18 03:26:22;;;;;;;;;;;20.40;99.90;;;;;;5031199;28;19929;-63
2022/09/18 03:28:49;;;;;;;;;;;20.40;99.90;;;;;;5030149;28;19930;-63
2022/09/18 03:31:18;;;;;;;;;;;20.40;99.90;;;;;;5027784;28;19929;-62
2022/09/18 03:33:46;;;;;;;;;;;20.40;99.90;;;;;;5022910;28;19926;-65
2022/09/18 03:36:13;;;;;;;;;;;20.40;99.90;;;;;;5007979;28;19936;-62
2022/09/18 03:38:41;;;;;;;;;;;20.40;99.90;;;;;;5011908;28;19929;-63
2022/09/18 03:41:08;;;;;;;;;;;20.40;99.90;;;;;;5007029;28;20290;-63
2022/09/18 03:43:39;;;;;;;;;;;20.50;99.90;;;;;;5013268;28;20116;-63
2022/09/18 03:46:09;;;;;;;;;;;20.40;99.90;;;;;;5013301;28;19929;-60
2022/09/18 03:48:37;;;;;;;;;;;20.40;99.90;;;;;;5001933;28;20282;-64
2022/09/18 03:51:04;;;;;;;;;;;20.40;99.90;;;;;;5020794;28;19933;-62
2022/09/18 03:53:32;;;;;;;;;;;20.40;99.90;;;;;;5010024;28;19929;-63
2022/09/18 03:56:28;;;;;;;;;;;20.50;99.90;;;;;;5012927;28;19933;-65
2022/09/18 03:59:06;;;;;;;;;;;20.40;99.90;;;;;;5003171;28;20416;-62
2022/09/18 04:01:51;;;;;;;;;;;20.40;99.90;;;;;;5010675;28;20352;-63
2022/09/18 04:04:25;;;;;;;;;;;20.40;99.90;;;;;;5010512;28;19930;-61
2022/09/18 04:07:10;;;;;;;;;;;20.40;99.90;;;;;;5023278;28;19925;-62
2022/09/18 04:10:00;;;;;;;;;;;20.30;99.90;;;;;;4991032;28;20049;-63
2022/09/18 04:12:27;;;;;;;;;;;20.40;99.90;;;;;;5008464;28;19940;-60
2022/09/18 04:15:12;;;;;;;;;;;20.40;99.90;;;;;;5015043;28;19929;-61
2022/09/18 04:17:39;;;;;;;;;;;20.40;99.90;;;;;;5010879;28;19930;-64
2022/09/18 04:20:08;;;;;;;;;;;20.30;99.90;;;;;;5000395;28;19926;-62
2022/09/18 04:22:35;;;;;;;;;;;20.40;99.90;;;;;;5011128;28;19925;-62
2022/09/18 04:25:03;;;;;;;;;;;20.40;99.90;;;;;;5019927;28;19929;-64
2022/09/18 04:27:30;;;;;;;;;;;20.30;99.90;;;;;;5008141;28;19937;-63
2022/09/18 04:29:58;;;;;;;;;;;20.40;99.90;;;;;;5005603;28;19929;-62
2022/09/18 04:32:25;;;;;;;;;;;20.40;99.90;;;;;;5009193;28;19925;-62
2022/09/18 04:34:53;;;;;;;;;;;20.40;99.90;;;;;;5013479;28;19930;-62
2022/09/18 04:37:20;;;;;;;;;;;20.40;99.90;;;;;;5017810;28;20366;-61
2022/09/18 04:39:50;;;;;;;;;;;20.40;99.90;;;;;;5017861;28;19937;-63
2022/09/18 04:42:18;;;;;;;;;;;20.40;99.90;;;;;;5007437;28;19937;-62
2022/09/18 04:44:46;;;;;;;;;;;20.40;99.90;;;;;;5011391;28;19929;-63
2022/09/18 04:47:14;;;;;;;;;;;20.30;99.90;;;;;;5015611;28;19949;-61
2022/09/18 04:49:41;;;;;;;;;;;20.40;99.90;;;;;;5010570;28;19929;-63
2022/09/18 04:52:08;;;;;;;;;;;20.40;99.90;;;;;;5007346;28;19953;-60
2022/09/18 04:54:36;;;;;;;;;;;20.40;99.90;;;;;;5005667;28;19926;-61
2022/09/18 04:57:03;;;;;;;;;;;20.30;99.90;;;;;;5011858;28;19933;-60
2022/09/18 04:59:30;;;;;;;;;;;20.30;99.90;;;;;;5008512;28;19929;-63
2022/09/18 05:01:58;;;;;;;;;;;20.30;99.90;;;;;;4994223;28;19930;-61
2022/09/18 05:04:25;;;;;;;;;;;20.30;99.90;;;;;;5025609;28;19936;-62
2022/09/18 05:07:06;;;;;;;;;;;20.30;99.90;;;;;;5020578;28;19936;-65
2022/09/18 05:09:35;;;;;;;;;;;20.30;99.90;;;;;;5011459;28;19925;-64
2022/09/18 05:12:05;;;;;;;;;;;20.30;99.90;;;;;;5011182;28;19934;-62
2022/09/18 05:14:35;;;;;;;;;;;20.30;99.90;;;;;;5004543;28;19933;-65
2022/09/18 05:17:05;;;;;;;;;;;20.30;99.90;;;;;;5004644;28;19926;-63
2022/09/18 05:19:52;;;;;;;;;;;20.30;99.90;;;;;;5009252;28;19936;-60
2022/09/18 05:22:23;;;;;;;;;;;20.30;99.90;;;;;;5014942;28;19930;-65
2022/09/18 05:24:51;;;;;;;;;;;20.30;99.90;;;;;;5010173;28;20313;-63
2022/09/18 05:27:18;;;;;;;;;;;20.30;99.90;;;;;;5037153;28;19929;-64
2022/09/18 05:29:50;;;;;;;;;;;20.30;99.90;;;;;;5007022;28;19933;-64
2022/09/18 05:32:21;;;;;;;;;;;20.30;99.90;;;;;;4987729;28;19930;-63
2022/09/18 05:34:50;;;;;;;;;;;20.30;99.90;;;;;;5024444;28;19936;-62
2022/09/18 05:37:17;;;;;;;;;;;20.30;99.90;;;;;;5018655;28;19936;-64
2022/09/18 05:39:48;;;;;;;;;;;20.30;99.90;;;;;;5003846;28;20273;-64
2022/09/18 05:42:15;;;;;;;;;;;20.30;99.90;;;;;;5008552;28;19948;-58
2022/09/18 05:44:43;;;;;;;;;;;20.40;99.90;;;;;;5016992;28;19929;-60
2022/09/18 05:47:16;;;;;;;;;;;20.00;99.90;;;;;;5010757;28;20403;-57
2022/09/18 05:49:43;;;;;;;;;;;19.30;99.90;;;;;;5000092;28;20325;-63
2022/09/18 05:52:10;;;;;;;;;;;19.10;99.90;;;;;;4992209;28;19933;-60
2022/09/18 05:54:38;;;;;;;;;;;19.30;99.90;;;;;;5004176;28;19934;-62
2022/09/18 05:57:07;;;;;;;;;;;19.50;99.90;;;;;;5004633;28;19949;-66
2022/09/18 05:59:35;;;;;;;;;;;19.70;99.90;;;;;;5009369;28;19937;-64
2022/09/18 06:02:03;;;;;;;;;;;19.90;99.90;;;;;;5005089;28;19936;-61
2022/09/18 06:04:53;;;;;;;;;;;20.00;99.90;;;;;;5002337;28;19933;-61
2022/09/18 06:07:22;;;;;;;;;;;20.00;99.90;;;;;;5019202;28;19932;-62
2022/09/18 06:09:50;;;;;;;;;;;20.00;99.90;;;;;;4989573;28;20006;-60
2022/09/18 06:12:17;;;;;;;;;;;20.10;99.90;;;;;;5002771;28;19926;-62
2022/09/18 06:14:44;;;;;;;;;;;20.20;99.90;;;;;;5010432;28;20401;-63
2022/09/18 06:17:13;;;;;;;;;;;20.30;99.90;;;;;;5012220;28;19934;-59
2022/09/18 06:19:40;;;;;;;;;;;20.40;99.90;;;;;;5013347;28;20440;-61
2022/09/18 06:22:08;;;;;;;;;;;20.60;99.90;;;;;;5009215;28;19936;-59
2022/09/18 06:24:35;;;;;;;;;;;20.80;99.90;;;;;;5008090;28;20510;-60
2022/09/18 06:27:08;;;;;;;;;;;21.10;99.90;;;;;;5013814;28;20216;-63
2022/09/18 06:29:35;;;;;;;;;;;21.30;99.90;;;;;;5032676;28;19956;-61
2022/09/18 06:32:10;;;;;;;;;;;21.50;99.90;;;;;;4991438;28;19925;-61
2022/09/18 06:34:39;;;;;;;;;;;21.60;99.90;;;;;;5006080;28;19925;-64
2022/09/18 06:37:08;;;;;;;;;;;21.70;99.90;;;;;;5008915;28;19929;-60
2022/09/18 06:39:42;;;;;;;;;;;21.80;99.90;;;;;;5017423;28;19929;-64
2022/09/18 06:42:16;;;;;;;;;;;21.80;99.90;;;;;;5007235;28;19929;-63
2022/09/18 06:44:58;;;;;;;;;;;21.80;99.90;;;;;;5015161;28;19928;-61
2022/09/18 06:47:27;;;;;;;;;;;21.90;99.90;;;;;;4991422;28;19940;-63
2022/09/18 06:49:54;;;;;;;;;;;21.90;99.90;;;;;;5008603;28;19932;-60
2022/09/18 06:52:21;;;;;;;;;;;22.00;99.90;;;;;;5027126;28;19936;-62
2022/09/18 06:54:49;;;;;;;;;;;22.10;99.90;;;;;;5027590;28;20408;-64
2022/09/18 06:57:30;;;;;;;;;;;22.10;99.90;;;;;;5032731;28;19925;-63
2022/09/18 06:59:57;;;;;;;;;;;22.10;99.90;;;;;;5028876;28;19936;-64
2022/09/18 07:02:25;;;;;;;;;;;22.10;99.90;;;;;;5012632;28;19926;-65
2022/09/18 07:05:21;;;;;;;;;;;22.10;99.90;;;;;;5025872;28;19929;-65
2022/09/18 07:07:48;;;;;;;;;;;22.10;99.90;;;;;;5012094;28;19933;-64
2022/09/18 07:10:16;;;;;;;;;;;22.10;99.90;;;;;;5006802;28;19929;-63
2022/09/18 07:12:47;;;;;;;;;;;22.10;99.90;;;;;;4991937;28;19926;-65
2022/09/18 07:15:17;;;;;;;;;;;22.20;99.90;;;;;;5012851;28;19929;-63
2022/09/18 07:17:44;;;;;;;;;;;22.20;99.90;;;;;;5034540;28;20399;-61
2022/09/18 07:20:14;;;;;;;;;;;22.20;99.90;;;;;;5015603;28;20313;-65
2022/09/18 07:22:50;;;;;;;;;;;22.20;99.90;;;;;;5002265;28;19929;-63
2022/09/18 07:25:17;;;;;;;;;;;22.20;99.90;;;;;;5015705;28;19926;-66
2022/09/18 07:27:44;;;;;;;;;;;22.20;99.90;;;;;;5034053;28;20342;-63
2022/09/18 07:30:13;;;;;;;;;;;22.30;99.90;;;;;;5012389;28;20012;-64
2022/09/18 07:32:41;;;;;;;;;;;22.30;99.90;;;;;;5015620;28;19929;-62
2022/09/18 07:35:13;;;;;;;;;;;22.30;99.90;;;;;;5007613;28;19945;-63
2022/09/18 07:37:42;;;;;;;;;;;22.30;99.90;;;;;;5023814;28;20032;-64
2022/09/18 07:40:17;;;;;;;;;;;22.30;99.90;;;;;;5018249;28;20599;-65
2022/09/18 07:43:07;;;;;;;;;;;22.20;99.90;;;;;;5018289;28;19925;-66
2022/09/18 07:45:36;;;;;;;;;;;22.30;99.90;;;;;;5006248;28;19929;-65
2022/09/18 07:48:04;;;;;;;;;;;22.20;99.90;;;;;;5011627;28;19936;-64
2022/09/18 07:50:36;;;;;;;;;;;22.20;99.90;;;;;;5009703;28;19937;-64
2022/09/18 07:53:04;;;;;;;;;;;22.20;99.90;;;;;;5013569;28;19933;-64
2022/09/18 07:55:36;;;;;;;;;;;22.20;99.90;;;;;;5021944;28;19932;-64
2022/09/18 07:58:04;;;;;;;;;;;22.20;99.90;;;;;;5018058;28;19944;-64
2022/09/18 08:00:58;;;;;;;;;;;22.10;99.90;;;;;;5030179;28;19925;-64
2022/09/18 08:03:26;;;;;;;;;;;22.10;99.90;;;;;;5016017;28;19938;-64
2022/09/18 08:06:05;;;;;;;;;;;22.10;99.90;;;;;;5031041;28;19929;-66
2022/09/18 08:08:34;;;;;;;;;;;22.10;99.90;;;;;;5021419;28;19939;-63
2022/09/18 08:11:20;;;;;;;;;;;22.10;99.90;;;;;;4995992;28;20404;-62
2022/09/18 08:13:57;;;;;;;;;;;22.10;99.90;;;;;;5024163;28;19925;-65
2022/09/18 08:16:33;;;;;;;;;;;22.10;99.90;;;;;;5026120;28;19936;-64
2022/09/18 08:19:09;;;;;;;;;;;22.10;99.90;;;;;;5009163;28;19925;-63
2022/09/18 08:21:42;;;;;;;;;;;22.10;99.90;;;;;;5013001;28;20320;-63
2022/09/18 08:24:12;;;;;;;;;;;22.10;99.90;;;;;;5011861;28;19933;-61
2022/09/18 08:26:39;;;;;;;;;;;22.00;99.90;;;;;;4999543;28;19948;-63
2022/09/18 08:29:07;;;;;;;;;;;21.20;99.90;;;;;;5017686;28;19929;-59
2022/09/18 08:31:36;;;;;;;;;;;20.80;99.90;;;;;;5000936;28;19936;-64
2022/09/18 08:34:06;;;;;;;;;;;21.00;99.90;;;;;;5013707;28;19936;-63
2022/09/18 08:36:34;;;;;;;;;;;21.30;99.90;;;;;;5007235;28;19929;-62
2022/09/18 08:39:09;;;;;;;;;;;21.40;99.90;;;;;;5003491;28;19937;-65
2022/09/18 08:42:00;;;;;;;;;;;21.50;99.90;;;;;;5022406;28;19948;-65
2022/09/18 08:44:35;;;;;;;;;;;21.70;99.90;;;;;;5023336;28;19938;-65
2022/09/18 08:47:03;;;;;;;;;;;21.90;99.90;;;;;;5009209;28;19930;-65
2022/09/18 08:49:42;;;;;;;;;;;22.00;99.90;;;;;;5023196;28;19925;-68
2022/09/18 08:52:14;;;;;;;;;;;22.10;99.90;;;;;;5012006;28;19929;-66
2022/09/18 08:54:55;;;;;;;;;;;22.20;99.90;;;;;;5015559;28;20413;-65
2022/09/18 08:57:40;;;;;;;;;;;22.20;99.90;;;;;;5002566;28;19929;-61
2022/09/18 09:00:20;;;;;;;;;;;22.20;99.90;;;;;;5002386;28;19926;-65
2022/09/18 09:03:09;;;;;;;;;;;22.30;99.90;;;;;;5001287;28;20316;-65
2022/09/18 09:05:43;;;;;;;;;;;22.30;99.90;;;;;;5010620;28;19929;-66
2022/09/18 09:08:30;;;;;;;;;;;22.30;99.90;;;;;;5007900;28;19936;-66
2022/09/18 09:11:33;;;;;;;;;;;22.30;99.90;;;;;;5017513;28;19932;-64
2022/09/18 09:14:06;;;;;;;;;;;22.20;99.90;;;;;;4962229;28;19927;-66
2022/09/18 09:16:48;;;;;;;;;;;22.20;99.90;;;;;;5006984;28;19940;-66
2022/09/18 09:19:16;;;;;;;;;;;22.20;99.90;;;;;;5017742;28;19930;-64
2022/09/18 09:22:03;;;;;;;;;;;22.20;99.90;;;;;;5012068;28;20408;-65
2022/09/18 09:24:34;;;;;;;;;;;22.20;99.90;;;;;;5013654;28;19936;-65
2022/09/18 09:27:12;;;;;;;;;;;22.30;99.90;;;;;;5041134;28;20265;-63
2022/09/18 09:30:03;;;;;;;;;;;22.30;99.90;;;;;;5050241;28;20383;-64
2022/09/18 09:32:41;;;;;;;;;;;22.20;99.90;;;;;;4988243;28;19929;-65
2022/09/18 09:35:34;;;;;;;;;;;22.20;99.90;;;;;;5011705;28;19929;-64
2022/09/18 09:38:19;;;;;;;;;;;22.20;99.90;;;;;;4994555;28;19925;-63
2022/09/18 09:40:49;;;;;;;;;;;22.20;99.90;;;;;;5008496;28;19992;-65
2022/09/18 09:43:27;;;;;;;;;;;22.20;99.90;;;;;;5008033;28;19930;-63
2022/09/18 09:45:58;;;;;;;;;;;22.20;99.90;;;;;;5036640;28;19925;-62
2022/09/18 09:48:40;;;;;;;;;;;22.20;99.90;;;;;;5017832;28;19925;-64
2022/09/18 09:51:14;;;;;;;;;;;22.20;99.90;;;;;;5016227;28;19935;-64
2022/09/18 09:53:43;;;;;;;;;;;22.20;99.90;;;;;;5023968;28;19925;-63
2022/09/18 09:56:10;;;;;;;;;;;22.10;99.90;;;;;;5012392;28;19929;-66
2022/09/18 09:58:40;;;;;;;;;;;22.10;99.90;;;;;;5010945;28;20343;-67
2022/09/18 10:01:24;;;;;;;;;;;22.10;99.90;;;;;;5023085;28;19929;-64
2022/09/18 10:03:54;;;;;;;;;;;22.10;99.90;;;;;;5014344;28;19936;-65
2022/09/18 10:06:30;;;;;;;;;;;22.00;99.90;;;;;;5006422;28;19932;-66
2022/09/18 10:09:10;;;;;;;;;;;22.00;99.90;;;;;;5010023;28;20240;-65
2022/09/18 10:11:41;;;;;;;;;;;22.00;99.90;;;;;;5024680;28;20397;-67
2022/09/18 10:14:17;;;;;;;;;;;22.00;99.90;;;;;;5005164;28;19930;-63
2022/09/18 10:16:47;;;;;;;;;;;22.00;99.90;;;;;;5012528;28;19933;-63
2022/09/18 10:19:17;;;;;;;;;;;21.90;99.90;;;;;;5007357;28;20393;-65
2022/09/18 10:21:46;;;;;;;;;;;21.90;99.90;;;;;;4993236;28;19929;-65
2022/09/18 10:24:19;;;;;;;;;;;21.90;99.90;;;;;;5027124;28;19929;-63
2022/09/18 10:26:54;;;;;;;;;;;21.80;99.90;;;;;;5015199;28;19933;-63
2022/09/18 10:29:22;;;;;;;;;;;21.80;99.90;;;;;;5019837;28;19925;-62
2022/09/18 10:31:55;;;;;;;;;;;21.80;99.90;;;;;;5024624;28;20189;-63
2022/09/18 10:34:28;;;;;;;;;;;21.80;99.90;;;;;;5009985;28;20364;-64
2022/09/18 10:37:12;;;;;;;;;;;21.70;99.90;;;;;;5030522;28;19929;-65
2022/09/18 10:39:47;;;;;;;;;;;21.70;99.90;;;;;;5024041;28;20309;-65
2022/09/18 10:42:18;;;;;;;;;;;21.70;99.90;;;;;;5006861;28;19934;-63
2022/09/18 10:44:48;;;;;;;;;;;21.80;99.90;;;;;;5014659;28;19928;-66
2022/09/18 10:47:31;;;;;;;;;;;21.70;99.90;;;;;;5008454;28;19929;-63
2022/09/18 10:50:09;;;;;;;;;;;21.80;99.90;;;;;;5010190;28;19925;-65
2022/09/18 10:52:43;;;;;;;;;;;21.80;99.90;;;;;;5013589;28;19928;-65
2022/09/18 10:55:19;;;;;;;;;;;21.80;99.90;;;;;;5018875;28;19930;-65
2022/09/18 10:58:04;;;;;;;;;;;21.80;99.90;;;;;;5023393;28;19929;-66
2022/09/18 11:00:35;;;;;;;;;;;21.90;99.90;;;;;;5008515;28;19929;-66
2022/09/18 11:03:23;;;;;;;;;;;21.80;99.90;;;;;;5009092;28;19936;-65
2022/09/18 11:06:03;;;;;;;;;;;21.90;99.90;;;;;;5008846;28;19932;-65
2022/09/18 11:08:33;;;;;;;;;;;21.90;99.90;;;;;;5013487;28;19932;-64
2022/09/18 11:11:06;;;;;;;;;;;21.90;99.90;;;;;;5014408;28;19936;-65
2022/09/18 11:13:40;;;;;;;;;;;22.00;99.90;;;;;;5007343;28;19929;-65
2022/09/18 11:16:09;;;;;;;;;;;22.00;99.90;;;;;;5010915;28;20309;-63
2022/09/18 11:18:37;;;;;;;;;;;22.00;99.90;;;;;;5019596;28;20030;-65
2022/09/18 11:21:06;;;;;;;;;;;22.10;99.90;;;;;;5008847;28;19936;-64
2022/09/18 11:23:34;;;;;;;;;;;22.10;99.90;;;;;;5016212;28;19936;-64
2022/09/18 11:26:19;;;;;;;;;;;22.10;99.90;;;;;;5016102;28;20640;-63
2022/09/18 11:28:59;;;;;;;;;;;22.10;99.90;;;;;;5004050;28;19933;-64
2022/09/18 11:31:32;;;;;;;;;;;22.10;99.90;;;;;;5026532;28;19933;-63
2022/09/18 11:34:03;;;;;;;;;;;22.10;99.90;;;;;;5020236;28;19948;-64
2022/09/18 11:36:39;;;;;;;;;;;22.10;99.90;;;;;;5004788;28;20385;-63
2022/09/18 11:39:12;;;;;;;;;;;22.10;99.90;;;;;;5005695;28;19932;-65
2022/09/18 11:41:39;;;;;;;;;;;22.10;99.90;;;;;;5002927;28;20329;-63
2022/09/18 11:44:24;;;;;;;;;;;22.10;99.90;;;;;;5002682;28;19940;-65
2022/09/18 11:46:57;;;;;;;;;;;22.10;99.90;;;;;;5002628;28;19929;-64
2022/09/18 11:49:27;;;;;;;;;;;22.00;99.90;;;;;;5007004;28;19925;-65
2022/09/18 11:52:08;;;;;;;;;;;22.00;99.90;;;;;;5006533;28;20415;-64
2022/09/18 11:55:02;;;;;;;;;;;22.00;99.90;;;;;;5021613;28;19929;-63
2022/09/18 11:57:33;;;;;;;;;;;22.00;99.90;;;;;;4999109;28;20397;-66
2022/09/18 12:00:07;;;;;;;;;;;22.00;99.90;;;;;;5011104;28;20273;-64
2022/09/18 12:02:46;;;;;;;;;;;22.00;99.90;;;;;;5026034;28;19936;-66
2022/09/18 12:05:18;;;;;;;;;;;22.00;99.90;;;;;;5022502;28;19925;-66
2022/09/18 12:07:50;;;;;;;;;;;22.00;99.90;;;;;;5027397;28;19958;-64
2022/09/18 12:10:28;;;;;;;;;;;22.00;99.90;;;;;;5006708;28;19933;-65
2022/09/18 12:13:06;;;;;;;;;;;22.00;99.90;;;;;;5014282;28;20383;-66
2022/09/18 12:15:36;;;;;;;;;;;22.00;99.90;;;;;;4997547;28;19929;-67
2022/09/18 12:18:08;;;;;;;;;;;22.00;99.90;;;;;;5019006;28;19933;-67
2022/09/18 12:20:42;;;;;;;;;;;22.00;99.90;;;;;;5022328;28;21432;-68
2022/09/18 12:23:13;;;;;;;;;;;22.00;99.90;;;;;;5011139;28;19929;-66
2022/09/18 12:25:43;;;;;;;;;;;22.00;99.90;;;;;;5035213;28;19992;-65
2022/09/18 12:28:53;;;;;;;;;;;22.00;99.90;;;;;;5014591;28;19934;-64
2022/09/18 12:31:26;;;;;;;;;;;21.90;99.90;;;;;;5010797;28;19925;-64
2022/09/18 12:34:12;;;;;;;;;;;21.90;99.90;;;;;;5018342;28;19925;-65
2022/09/18 12:36:42;;;;;;;;;;;21.80;99.90;;;;;;5024612;28;20294;-65
2022/09/18 12:39:28;;;;;;;;;;;21.80;99.90;;;;;;5027164;28;19925;-64
2022/09/18 12:42:14;;;;;;;;;;;21.80;99.90;;;;;;5026001;28;19929;-64
2022/09/18 12:45:00;;;;;;;;;;;21.90;99.90;;;;;;5017983;28;19936;-63
2022/09/18 12:47:33;;;;;;;;;;;21.80;99.90;;;;;;5025808;28;20292;-63
2022/09/18 12:50:06;;;;;;;;;;;21.80;99.90;;;;;;5027661;28;20304;-64
2022/09/18 12:52:39;;;;;;;;;;;21.90;99.90;;;;;;5006964;28;20294;-61
2022/09/18 12:55:30;;;;;;;;;;;21.90;99.90;;;;;;5023152;28;19933;-62
2022/09/18 12:58:00;;;;;;;;;;;21.80;99.90;;;;;;5001079;28;20317;-63
2022/09/18 13:00:27;;;;;;;;;;;21.80;99.90;;;;;;5008692;28;19940;-63
2022/09/18 13:03:13;;;;;;;;;;;21.90;99.90;;;;;;5022311;28;19932;-63
2022/09/18 13:05:42;;;;;;;;;;;21.80;99.90;;;;;;5019212;28;19925;-63
2022/09/18 13:08:28;;;;;;;;;;;21.90;99.90;;;;;;5003333;28;20305;-62
2022/09/18 13:10:59;;;;;;;;;;;21.90;99.90;;;;;;5025770;28;19934;-64
2022/09/18 13:13:48;;;;;;;;;;;21.90;99.90;;;;;;5026653;28;20348;-63
2022/09/18 13:16:31;;;;;;;;;;;21.90;99.90;;;;;;4990591;28;19933;-65
2022/09/18 13:19:19;;;;;;;;;;;21.90;99.90;;;;;;5022243;28;19936;-65
2022/09/18 13:21:47;;;;;;;;;;;22.00;99.90;;;;;;5003558;28;20336;-64
2022/09/18 13:24:16;;;;;;;;;;;22.00;99.90;;;;;;5027047;28;19926;-63
2022/09/18 13:26:46;;;;;;;;;;;22.00;99.90;;;;;;5020027;28;19929;-62
2022/09/18 13:29:32;;;;;;;;;;;22.00;99.90;;;;;;5024725;28;19929;-65
2022/09/18 13:31:59;;;;;;;;;;;22.00;99.90;;;;;;5028083;28;19936;-65
2022/09/18 13:34:26;;;;;;;;;;;22.00;99.90;;;;;;5027181;28;19933;-65
2022/09/18 13:37:03;;;;;;;;;;;22.00;99.90;;;;;;4991045;28;19929;-65
2022/09/18 13:39:31;;;;;;;;;;;22.10;99.90;;;;;;5024769;28;19925;-65
2022/09/18 13:42:28;;;;;;;;;;;22.10;99.90;;;;;;5033693;28;19929;-65
2022/09/18 13:44:59;;;;;;;;;;;22.10;99.90;;;;;;5031571;28;19929;-67
2022/09/18 13:47:26;;;;;;;;;;;22.10;99.90;;;;;;5022484;28;19929;-64
2022/09/18 13:49:55;;;;;;;;;;;22.10;99.90;;;;;;5018896;28;20322;-64
2022/09/18 13:52:40;;;;;;;;;;;22.20;99.90;;;;;;5026499;28;20238;-65
2022/09/18 13:55:15;;;;;;;;;;;22.10;99.90;;;;;;5017134;28;19935;-65
2022/09/18 13:57:43;;;;;;;;;;;22.20;99.90;;;;;;5023985;28;19936;-64
2022/09/18 14:00:19;;;;;;;;;;;22.20;99.90;;;;;;5034348;28;20278;-65
2022/09/18 14:02:47;;;;;;;;;;;22.20;99.90;;;;;;5021126;28;19937;-65
2022/09/18 14:05:26;;;;;;;;;;;22.10;99.90;;;;;;5022226;28;20320;-64
2022/09/18 14:07:53;;;;;;;;;;;22.20;99.90;;;;;;5024065;28;19936;-64
2022/09/18 14:10:25;;;;;;;;;;;22.20;99.90;;;;;;5025055;28;20293;-66
2022/09/18 14:13:21;;;;;;;;;;;22.20;99.90;;;;;;5028341;28;20287;-65
2022/09/18 14:16:08;;;;;;;;;;;22.20;99.90;;;;;;5012924;28;19936;-67
2022/09/18 14:18:51;;;;;;;;;;;22.20;99.90;;;;;;5013052;28;19925;-68
2022/09/18 14:21:24;;;;;;;;;;;22.30;99.90;;;;;;4996182;28;19930;-65
2022/09/18 14:24:00;;;;;;;;;;;22.20;99.90;;;;;;5035277;28;19933;-67
2022/09/18 14:26:27;;;;;;;;;;;22.20;99.90;;;;;;5037406;28;19933;-64
2022/09/18 14:28:57;;;;;;;;;;;22.20;99.90;;;;;;5027982;28;20384;-66
2022/09/18 14:31:28;;;;;;;;;;;22.20;99.90;;;;;;5028199;28;19925;-66
2022/09/18 14:34:05;;;;;;;;;;;22.10;99.90;;;;;;5019509;28;19930;-66
2022/09/18 14:36:42;;;;;;;;;;;22.10;99.90;;;;;;5025411;28;19934;-65
2022/09/18 14:39:26;;;;;;;;;;;22.10;99.90;;;;;;5003711;28;19930;-65
2022/09/18 14:41:54;;;;;;;;;;;22.10;99.90;;;;;;5023054;28;19933;-62
2022/09/18 14:44:22;;;;;;;;;;;22.10;99.90;;;;;;5003092;28;19966;-68
2022/09/18 14:46:56;;;;;;;;;;;22.10;99.90;;;;;;5022424;28;20336;-66
2022/09/18 14:49:29;;;;;;;;;;;22.10;99.90;;;;;;5020929;28;19929;-65
2022/09/18 14:51:57;;;;;;;;;;;22.10;99.90;;;;;;5003180;28;19942;-65